createdAt,value
2023-01-01T00:00:19.183Z,97602.66
2023-01-01T00:03:20.986Z,97605.09
2023-01-01T00:06:23.015Z,97604.13
2023-01-01T00:09:42.918Z,97606.00
2023-01-01T00:12:44.513Z,97609.16
2023-01-01T00:15:46.066Z,97595.44
2023-01-01T00:18:47.620Z,97597.97
2023-01-01T00:21:49.265Z,97603.31
2023-01-01T00:24:50.907Z,97607.16
2023-01-01T00:27:52.583Z,97589.78
2023-01-01T00:30:54.228Z,97595.66
2023-01-01T00:33:56.717Z,97587.53
2023-01-01T00:36:58.305Z,97599.16
2023-01-01T00:39:59.860Z,97601.16
2023-01-01T00:43:01.418Z,97600.84
2023-01-01T00:46:04.905Z,97590.31
2023-01-01T00:49:06.570Z,97596.13
2023-01-01T00:52:08.273Z,97603.25
2023-01-01T00:55:10.593Z,97591.69
2023-01-01T00:58:12.572Z,97588.06
2023-01-01T01:01:14.389Z,97595.50
2023-01-01T01:04:16.020Z,97582.44
2023-01-01T01:07:17.571Z,97591.13
2023-01-01T01:10:21.566Z,97589.31
2023-01-01T01:13:23.156Z,97593.03
2023-01-01T01:16:34.442Z,97589.41
2023-01-01T01:19:36.028Z,97602.00
2023-01-01T01:22:37.704Z,97595.56
2023-01-01T01:25:39.308Z,97592.94
2023-01-01T01:28:47.082Z,97597.19
2023-01-01T01:31:51.342Z,97584.81
2023-01-01T01:34:52.878Z,97599.69
2023-01-01T01:37:54.425Z,97604.34
2023-01-01T01:40:56.071Z,97613.09
2023-01-01T01:44:01.689Z,97627.63
2023-01-01T01:47:03.338Z,97632.56
2023-01-01T01:50:09.192Z,97629.97
2023-01-01T01:53:16.329Z,97640.38
2023-01-01T01:56:24.169Z,97642.31
2023-01-01T01:59:30.075Z,97648.38
2023-01-01T02:02:38.728Z,97639.69
2023-01-01T02:05:41.491Z,97643.66
2023-01-01T02:08:43.099Z,97644.88
2023-01-01T02:11:44.712Z,97650.22
2023-01-01T02:14:46.341Z,97634.50
2023-01-01T02:18:01.109Z,97641.47
2023-01-01T02:21:11.475Z,97629.66
2023-01-01T02:24:29.146Z,97643.56
2023-01-01T02:27:59.076Z,97643.31
2023-01-01T02:31:02.149Z,97644.38
2023-01-01T02:34:09.341Z,97636.53
2023-01-01T02:37:14.507Z,97640.31
2023-01-01T02:40:19.343Z,97631.97
2023-01-01T02:43:24.748Z,97629.06
2023-01-01T02:46:34.855Z,97630.59
2023-01-01T02:49:41.509Z,97626.16
2023-01-01T02:52:50.272Z,97634.25
2023-01-01T02:55:54.648Z,97636.09
2023-01-01T02:59:34.433Z,97643.03
2023-01-01T03:03:05.558Z,97634.59
2023-01-01T03:06:24.856Z,97635.09
2023-01-01T03:09:50.746Z,97637.88
2023-01-01T03:13:03.393Z,97629.78
2023-01-01T03:16:20.076Z,97617.09
2023-01-01T03:19:29.047Z,97623.84
2023-01-01T03:25:47.508Z,97626.31
2023-01-01T03:28:57.556Z,97624.66
2023-01-01T03:32:01.877Z,97625.16
2023-01-01T03:35:04.046Z,97621.19
2023-01-01T03:38:10.958Z,97618.88
2023-01-01T03:41:22.495Z,97619.19
2023-01-01T03:44:35.386Z,97622.50
2023-01-01T03:47:37.608Z,97615.56
2023-01-01T03:51:01.319Z,97623.34
2023-01-01T03:54:35.832Z,97623.81
2023-01-01T03:58:09.846Z,97623.81
2023-01-01T04:01:18.214Z,97620.81
2023-01-01T04:04:20.446Z,97629.09
2023-01-01T04:07:23.268Z,97634.19
2023-01-01T04:10:25.920Z,97631.03
2023-01-01T04:13:27.534Z,97643.53
2023-01-01T04:16:29.143Z,97638.94
2023-01-01T04:19:31.057Z,97634.66
2023-01-01T04:22:32.615Z,97626.72
2023-01-01T04:25:34.352Z,97622.44
2023-01-01T04:28:36.067Z,97627.41
2023-01-01T04:31:38.327Z,97630.88
2023-01-01T04:34:40.223Z,97616.38
2023-01-01T04:37:43.901Z,97619.25
2023-01-01T04:40:45.627Z,97623.50
2023-01-01T04:43:50.833Z,97630.13
2023-01-01T04:46:56.901Z,97605.00
2023-01-01T04:50:01.606Z,97618.72
2023-01-01T04:53:03.117Z,97601.22
2023-01-01T04:56:05.438Z,97617.22
2023-01-01T04:59:07.092Z,97620.66
2023-01-01T05:02:08.750Z,97591.63
2023-01-01T05:05:13.475Z,97611.47
2023-01-01T05:08:14.971Z,97594.59
2023-01-01T05:11:19.749Z,97619.97
2023-01-01T05:14:21.444Z,97613.94
2023-01-01T05:17:23.073Z,97615.38
2023-01-01T05:20:25.079Z,97619.31
2023-01-01T05:23:26.730Z,97614.16
2023-01-01T05:26:31.864Z,97611.09
2023-01-01T05:29:33.422Z,97617.19
2023-01-01T05:32:37.338Z,97613.53
2023-01-01T05:35:39.150Z,97616.22
2023-01-01T05:38:40.760Z,97613.09
2023-01-01T05:41:42.371Z,97612.00
2023-01-01T05:44:43.963Z,97612.84
2023-01-01T05:47:45.496Z,97615.34
2023-01-01T05:50:47.052Z,97623.75
2023-01-01T05:53:48.875Z,97616.03
2023-01-01T05:56:50.466Z,97617.97
2023-01-01T05:59:51.995Z,97628.06
2023-01-01T06:02:54.953Z,97619.94
2023-01-01T06:05:56.668Z,97634.63
2023-01-01T06:09:00.399Z,97629.03
2023-01-01T06:12:01.938Z,97631.03
2023-01-01T06:15:03.713Z,97642.31
2023-01-01T06:18:05.338Z,97643.13
2023-01-01T06:21:12.387Z,97644.44
2023-01-01T06:24:14.077Z,97639.56
2023-01-01T06:27:15.656Z,97645.97
2023-01-01T06:30:17.375Z,97643.13
2023-01-01T06:33:18.922Z,97649.34
2023-01-01T06:36:23.119Z,97644.78
2023-01-01T06:39:24.633Z,97656.09
2023-01-01T06:42:30.471Z,97665.09
2023-01-01T06:45:35.233Z,97669.22
2023-01-01T06:48:37.696Z,97676.97
2023-01-01T06:51:43.871Z,97671.91
2023-01-01T06:54:45.400Z,97665.97
2023-01-01T06:57:47.083Z,97673.59
2023-01-01T07:00:48.695Z,97674.72
2023-01-01T07:03:54.811Z,97679.38
2023-01-01T07:06:56.423Z,97666.13
2023-01-01T07:09:58.009Z,97659.84
2023-01-01T07:13:00.822Z,97661.63
2023-01-01T07:16:08.374Z,97657.84
2023-01-01T07:19:13.874Z,97660.47
2023-01-01T07:22:15.486Z,97669.00
2023-01-01T07:25:17.204Z,97653.31
2023-01-01T07:28:20.215Z,97642.09
2023-01-01T07:31:21.814Z,97656.47
2023-01-01T07:34:23.930Z,97663.88
2023-01-01T07:37:26.357Z,97668.97
2023-01-01T07:40:27.882Z,97662.25
2023-01-01T07:43:29.477Z,97671.13
2023-01-01T07:46:31.385Z,97664.69
2023-01-01T07:49:33.067Z,97676.44
2023-01-01T07:52:34.569Z,97687.84
2023-01-01T07:55:36.135Z,97688.88
2023-01-01T07:58:41.647Z,97692.66
2023-01-01T08:01:43.263Z,97703.09
2023-01-01T08:04:44.896Z,97700.97
2023-01-01T08:07:48.384Z,97699.66
2023-01-01T08:10:50.043Z,97712.06
2023-01-01T08:13:51.544Z,97720.69
2023-01-01T08:16:53.054Z,97711.25
2023-01-01T08:19:54.641Z,97725.63
2023-01-01T08:23:00.150Z,97714.22
2023-01-01T08:26:04.720Z,97723.66
2023-01-01T08:29:07.119Z,97722.81
2023-01-01T08:32:12.582Z,97729.47
2023-01-01T08:35:14.145Z,97732.94
2023-01-01T08:38:15.647Z,97732.94
2023-01-01T08:41:17.148Z,97742.84
2023-01-01T08:44:19.651Z,97742.31
2023-01-01T08:47:26.186Z,97737.19
2023-01-01T08:50:27.780Z,97750.09
2023-01-01T08:53:30.993Z,97754.38
2023-01-01T08:56:32.652Z,97753.38
2023-01-01T08:59:34.294Z,97767.41
2023-01-01T09:02:36.045Z,97757.13
2023-01-01T09:05:37.919Z,97760.88
2023-01-01T09:08:40.766Z,97754.56
2023-01-01T09:11:57.246Z,97745.97
2023-01-01T09:14:58.862Z,97748.13
2023-01-01T09:18:00.414Z,97752.25
2023-01-01T09:21:02.019Z,97757.53
2023-01-01T09:24:03.903Z,97762.91
2023-01-01T09:27:05.812Z,97759.84
2023-01-01T09:30:08.408Z,97759.56
2023-01-01T09:33:10.051Z,97758.19
2023-01-01T09:36:32.589Z,97757.72
2023-01-01T09:39:34.110Z,97762.38
2023-01-01T09:42:43.587Z,97755.19
2023-01-01T09:46:01.563Z,97750.06
2023-01-01T09:49:13.265Z,97753.66
2023-01-01T09:52:16.338Z,97756.72
2023-01-01T09:55:27.429Z,97748.28
2023-01-01T09:58:38.047Z,97743.16
2023-01-01T10:02:04.865Z,97739.38
2023-01-01T10:05:25.075Z,97723.78
2023-01-01T10:08:41.683Z,97732.94
2023-01-01T10:11:53.186Z,97742.88
2023-01-01T10:15:04.253Z,97724.41
2023-01-01T10:18:17.627Z,97717.13
2023-01-01T10:21:26.179Z,97710.88
2023-01-01T10:24:40.924Z,97716.34
2023-01-01T10:27:57.129Z,97709.41
2023-01-01T10:31:32.790Z,97708.69
2023-01-01T10:34:34.438Z,97702.69
2023-01-01T10:37:42.262Z,97705.19
2023-01-01T10:40:44.482Z,97696.84
2023-01-01T10:43:47.687Z,97702.81
2023-01-01T10:46:56.990Z,97704.81
2023-01-01T10:50:07.646Z,97705.00
2023-01-01T10:53:22.102Z,97694.97
2023-01-01T10:56:24.967Z,97708.13
2023-01-01T10:59:38.200Z,97700.78
2023-01-01T11:02:39.844Z,97709.00
2023-01-01T11:06:01.169Z,97698.34
2023-01-01T11:09:19.291Z,97690.97
2023-01-01T11:13:03.556Z,97687.94
2023-01-01T11:15:56.372Z,97685.34
2023-01-01T11:19:04.344Z,97682.94
2023-01-01T11:22:06.919Z,97677.22
2023-01-01T11:25:23.755Z,97678.88
2023-01-01T11:28:26.105Z,97680.53
2023-01-01T11:31:34.264Z,97665.63
2023-01-01T11:34:43.255Z,97659.69
2023-01-01T11:37:45.991Z,97649.63
2023-01-01T11:40:51.655Z,97652.09
2023-01-01T11:43:55.474Z,97629.16
2023-01-01T11:46:58.077Z,97628.34
2023-01-01T11:50:17.686Z,97622.19
2023-01-01T11:53:29.483Z,97614.78
2023-01-01T11:56:38.024Z,97598.97
2023-01-01T11:59:51.758Z,97586.66
2023-01-01T12:03:01.499Z,97599.53
2023-01-01T12:06:19.252Z,97584.50
2023-01-01T12:09:48.045Z,97578.91
2023-01-01T12:13:02.258Z,97570.66
2023-01-01T12:16:13.495Z,97587.00
2023-01-01T12:19:30.978Z,97568.88
2023-01-01T12:22:32.818Z,97558.28
2023-01-01T12:25:47.170Z,97551.47
2023-01-01T12:29:03.678Z,97544.38
2023-01-01T12:32:26.753Z,97553.81
2023-01-01T12:35:49.741Z,97548.91
2023-01-01T12:38:51.198Z,97540.81
2023-01-01T12:42:10.365Z,97535.06
2023-01-01T12:45:30.484Z,97524.66
2023-01-01T12:48:51.617Z,97524.97
2023-01-01T12:52:02.680Z,97520.91
2023-01-01T12:55:33.514Z,97524.28
2023-01-01T12:58:43.368Z,97515.97
2023-01-01T13:01:46.061Z,97522.53
2023-01-01T13:04:52.988Z,97521.88
2023-01-01T13:08:00.242Z,97530.41
2023-01-01T13:11:03.168Z,97528.56
2023-01-01T13:14:04.691Z,97517.88
2023-01-01T13:17:20.897Z,97522.81
2023-01-01T13:20:26.200Z,97525.88
2023-01-01T13:23:34.780Z,97529.16
2023-01-01T13:26:37.514Z,97522.75
2023-01-01T13:29:44.372Z,97525.22
2023-01-01T13:33:21.524Z,97514.22
2023-01-01T13:36:26.691Z,97527.38
2023-01-01T13:40:12.892Z,97515.28
2023-01-01T13:43:31.863Z,97505.31
2023-01-01T13:47:01.132Z,97499.94
2023-01-01T13:50:12.115Z,97492.13
2023-01-01T13:53:39.372Z,97492.72
2023-01-01T13:57:02.810Z,97501.34
2023-01-01T14:00:05.538Z,97502.19
2023-01-01T14:03:17.416Z,97500.13
2023-01-01T14:06:41.716Z,97503.44
2023-01-01T14:09:43.276Z,97510.25
2023-01-01T14:12:45.162Z,97499.59
2023-01-01T14:15:55.470Z,97502.41
2023-01-01T14:19:23.153Z,97504.81
2023-01-01T14:22:24.719Z,97508.88
2023-01-01T14:25:28.994Z,97499.53
2023-01-01T14:28:37.434Z,97504.34
2023-01-01T14:31:44.716Z,97502.41
2023-01-01T14:34:46.369Z,97507.03
2023-01-01T14:37:48.015Z,97505.63
2023-01-01T14:41:00.118Z,97494.16
2023-01-01T14:44:11.791Z,97492.00
2023-01-01T14:47:29.304Z,97500.44
2023-01-01T14:50:34.037Z,97502.31
2023-01-01T14:53:35.731Z,97501.88
2023-01-01T14:56:37.970Z,97504.72
2023-01-01T14:59:47.501Z,97508.56
2023-01-01T15:02:49.260Z,97508.69
2023-01-01T15:06:02.235Z,97520.31
2023-01-01T15:09:04.217Z,97516.38
2023-01-01T15:12:06.019Z,97513.25
2023-01-01T15:15:44.546Z,97510.09
2023-01-01T15:18:53.250Z,97501.13
2023-01-01T15:21:55.048Z,97505.47
2023-01-01T15:24:58.473Z,97503.63
2023-01-01T15:28:00.170Z,97519.38
2023-01-01T15:31:01.885Z,97523.09
2023-01-01T15:34:04.908Z,97512.69
2023-01-01T15:37:28.141Z,97514.31
2023-01-01T15:40:33.701Z,97504.91
2023-01-01T15:43:35.329Z,97505.13
2023-01-01T15:46:36.899Z,97504.78
2023-01-01T15:49:38.485Z,97518.13
2023-01-01T15:52:43.486Z,97502.84
2023-01-01T15:55:51.631Z,97495.34
2023-01-01T15:59:03.827Z,97497.97
2023-01-01T16:02:19.824Z,97499.22
2023-01-01T16:05:23.927Z,97492.44
2023-01-01T16:08:25.762Z,97493.06
2023-01-01T16:11:30.641Z,97500.97
2023-01-01T16:14:32.258Z,97499.91
2023-01-01T16:17:34.197Z,97498.47
2023-01-01T16:20:35.729Z,97496.38
2023-01-01T16:23:37.339Z,97500.41
2023-01-01T16:26:38.803Z,97507.06
2023-01-01T16:29:43.367Z,97498.00
2023-01-01T16:32:45.731Z,97505.09
2023-01-01T16:35:47.347Z,97491.75
2023-01-01T16:38:49.107Z,97499.38
2023-01-01T16:41:50.675Z,97506.78
2023-01-01T16:44:52.203Z,97505.63
2023-01-01T16:47:55.145Z,97516.06
2023-01-01T16:50:56.631Z,97511.81
2023-01-01T16:54:00.700Z,97516.97
2023-01-01T16:57:02.249Z,97515.84
2023-01-01T17:00:04.126Z,97518.69
2023-01-01T17:03:05.864Z,97512.91
2023-01-01T17:06:09.807Z,97523.97
2023-01-01T17:09:11.349Z,97518.66
2023-01-01T17:12:13.156Z,97522.97
2023-01-01T17:15:14.752Z,97513.06
2023-01-01T17:18:16.278Z,97516.72
2023-01-01T17:21:19.116Z,97512.06
2023-01-01T17:24:21.386Z,97518.50
2023-01-01T17:27:22.992Z,97524.78
2023-01-01T17:30:26.408Z,97524.94
2023-01-01T17:33:29.178Z,97526.94
2023-01-01T17:36:30.720Z,97529.41
2023-01-01T17:39:32.254Z,97525.78
2023-01-01T17:42:34.703Z,97532.72
2023-01-01T17:45:37.659Z,97543.16
2023-01-01T17:48:51.673Z,97538.41
2023-01-01T17:51:53.398Z,97536.75
2023-01-01T17:54:54.907Z,97532.47
2023-01-01T17:57:56.475Z,97539.44
2023-01-01T18:01:11.486Z,97543.56
2023-01-01T18:04:13.185Z,97540.75
2023-01-01T18:07:14.753Z,97551.69
2023-01-01T18:10:16.429Z,97539.78
2023-01-01T18:13:20.115Z,97531.56
2023-01-01T18:16:33.559Z,97542.63
2023-01-01T18:19:38.935Z,97518.81
2023-01-01T18:22:46.434Z,97538.00
2023-01-01T18:25:54.048Z,97525.94
2023-01-01T18:29:02.395Z,97526.94
2023-01-01T18:32:11.485Z,97514.88
2023-01-01T18:35:13.118Z,97526.63
2023-01-01T18:38:18.936Z,97522.16
2023-01-01T18:41:38.908Z,97507.63
2023-01-01T18:44:41.280Z,97507.97
2023-01-01T18:47:45.799Z,97508.28
2023-01-01T18:50:47.375Z,97513.91
2023-01-01T18:53:50.609Z,97523.78
2023-01-01T18:57:02.825Z,97518.00
2023-01-01T19:04:08.661Z,97502.53
2023-01-01T19:07:26.840Z,97505.97
2023-01-01T19:10:35.944Z,97473.63
2023-01-01T19:13:42.246Z,97485.16
2023-01-01T19:20:30.685Z,97501.50
2023-01-01T19:23:32.449Z,97472.63
2023-01-01T19:26:36.938Z,97502.00
2023-01-01T19:29:42.587Z,97495.44
2023-01-01T19:32:47.232Z,97504.31
2023-01-01T19:35:48.800Z,97504.00
2023-01-01T19:38:50.892Z,97494.94
2023-01-01T19:41:52.434Z,97495.41
2023-01-01T19:44:54.615Z,97494.91
2023-01-01T19:47:56.101Z,97498.72
2023-01-01T19:50:57.832Z,97497.38
2023-01-01T19:53:59.463Z,97486.50
2023-01-01T19:57:01.004Z,97480.56
2023-01-01T20:00:02.619Z,97476.09
2023-01-01T20:06:36.418Z,97472.63
2023-01-01T20:09:38.109Z,97459.09
2023-01-01T20:12:39.672Z,97459.41
2023-01-01T20:15:46.527Z,97469.34
2023-01-01T20:18:49.428Z,97461.56
2023-01-01T20:22:09.564Z,97472.94
2023-01-01T20:25:11.500Z,97459.75
2023-01-01T20:28:31.640Z,97475.94
2023-01-01T20:31:33.192Z,97463.75
2023-01-01T20:34:34.885Z,97470.03
2023-01-01T20:37:36.547Z,97469.03
2023-01-01T20:40:38.232Z,97469.84
2023-01-01T20:43:39.809Z,97457.63
2023-01-01T20:46:42.336Z,97471.16
2023-01-01T20:49:44.046Z,97472.47
2023-01-01T20:52:45.759Z,97475.44
2023-01-01T20:55:47.242Z,97473.59
2023-01-01T20:58:54.535Z,97482.50
2023-01-01T21:01:59.877Z,97473.25
2023-01-01T21:05:01.907Z,97472.94
2023-01-01T21:08:03.633Z,97467.31
2023-01-01T21:11:07.489Z,97465.16
2023-01-01T21:14:09.240Z,97461.88
2023-01-01T21:17:20.927Z,97452.81
2023-01-01T21:20:22.567Z,97441.59
2023-01-01T21:23:29.043Z,97453.44
2023-01-01T21:26:36.508Z,97440.53
2023-01-01T21:29:44.408Z,97448.13
2023-01-01T21:32:48.089Z,97449.47
2023-01-01T21:35:49.598Z,97443.84
2023-01-01T21:38:52.014Z,97450.13
2023-01-01T21:41:59.474Z,97445.22
2023-01-01T21:45:01.236Z,97445.41
2023-01-01T21:48:16.083Z,97438.13
2023-01-01T21:51:37.561Z,97443.91
2023-01-01T21:54:39.516Z,97432.03
2023-01-01T21:57:41.047Z,97436.34
2023-01-01T22:00:42.943Z,97445.22
2023-01-01T22:03:44.631Z,97438.94
2023-01-01T22:07:17.842Z,97434.00
2023-01-01T22:10:34.921Z,97442.53
2023-01-01T22:13:36.459Z,97442.53
2023-01-01T22:16:38.089Z,97435.94
2023-01-01T22:19:39.755Z,97441.22
2023-01-01T22:22:42.736Z,97432.13
2023-01-01T22:25:44.317Z,97443.34
2023-01-01T22:28:51.682Z,97435.56
2023-01-01T22:32:01.491Z,97424.53
2023-01-01T22:35:14.991Z,97430.81
2023-01-01T22:38:20.866Z,97434.94
2023-01-01T22:41:22.391Z,97431.97
2023-01-01T22:44:26.920Z,97433.63
2023-01-01T22:47:34.556Z,97428.69
2023-01-01T22:50:36.767Z,97426.88
2023-01-01T22:53:38.327Z,97430.19
2023-01-01T22:56:39.838Z,97425.75
2023-01-01T22:59:41.403Z,97427.91
2023-01-01T23:02:43.602Z,97424.41
2023-01-01T23:05:45.208Z,97423.59
2023-01-01T23:08:47.083Z,97422.38
2023-01-01T23:11:48.637Z,97424.03
2023-01-01T23:15:08.735Z,97428.31
2023-01-01T23:18:10.223Z,97414.59
2023-01-01T23:21:19.994Z,97412.97
2023-01-01T23:24:24.546Z,97411.31
2023-01-01T23:27:26.657Z,97415.47
2023-01-01T23:30:28.210Z,97396.97
2023-01-01T23:33:30.884Z,97397.63
2023-01-01T23:36:32.675Z,97392.88
2023-01-01T23:39:34.220Z,97398.16
2023-01-01T23:42:35.802Z,97395.19
2023-01-01T23:45:38.144Z,97388.03
2023-01-01T23:48:41.835Z,97388.34
2023-01-01T23:51:43.366Z,97388.50
2023-01-01T23:54:44.898Z,97389.78
2023-01-01T23:57:46.491Z,97390.28
